Tiempo atmosférico en la estación meteorológica de Pollença, Illes Balears (45 m.)



Fecha
DESCASC
Temp. máxima en grados centígrados (hora)
DESCASC
Temp. mínima en grados centígrados (hora)
DESCASC
Temp. media en grados centígrados
DESCASC
Racha de viento máxima en m/sg (hora)
DESCASC
Velocidad máxima media en intervalos de 10 minutos(hora)
DESCASC
Precipitaciones diarias en mm
DESCASC
Precipitaciones de 00:00 a 06:00 en mm
DESCASC
Precipitaciones de 06:00 a 12:00 en mm
DESCASC
Precipitaciones de 12:00 a 18:00 en mm
DESCASC
Precipitaciones de 18:00 a 24:00 en mm
DESCASC
30-11-2020 20.8 (14:20) 8.4 (06:30) 14.6 3.89 (12:40) 1.94 (12:40) 0 0 0 0 0
29-11-2020 18.3 (12:40) 10.1 (00:00) 14.2 8.33 (09:00) 4.17 (13:00) 3 2.6 0.4 0 0
28-11-2020 17.7 (12:00) 12.2 (00:00) 15 9.72 (05:50) 4.17 (03:10) 15 13.8 0.4 0.6 0.2
27-11-2020 19.5 (13:40) 11.6 (00:00) 15.6 7.22 (14:20) 2.78 (13:50) 1.2 0 0 0 1.2
26-11-2020 19.5 (10:50) 10.2 (00:00) 14.8 4.44 (17:30) 2.22 (10:30) 0 0 0 0 0
25-11-2020 18.8 (12:50) 8.7 (00:00) 13.7 5.83 (19:10) 2.78 (19:10) 0 0 0 0 0
24-11-2020 20.6 (14:30) 5.8 (00:00) 13.2 6.11 (15:20) 2.22 (15:20) 0 0 0 0 0
23-11-2020 18 (11:20) 7.6 (00:00) 12.8 3.33 (12:50) 1.67 (15:20) 0 0 0 0 0
22-11-2020 16.8 (12:30) 8.1 (00:00) 12.4 7.5 (14:00) 3.61 (12:30) 0 0 0 0 0
21-11-2020 16.2 (13:50) 12.9 (00:00) 14.6 10.28 (02:00) 5.28 (04:40) 0 0 0 0 0
20-11-2020 18.4 (14:20) 13.5 (00:00) 15.9 9.44 (11:30) 4.44 (12:10) 0 0 0 0 0
19-11-2020 22.4 (14:00) 10.6 (00:00) 16.5 5 (10:50) 2.78 (10:50) 0 0 0 0 0
18-11-2020 20.9 (10:10) 9.9 (00:00) 15.4 3.89 (12:40) 2.22 (13:10) 0 0 0 0 0
17-11-2020 20.4 (11:10) 11.7 (00:00) 16 6.67 (14:10) 3.33 (14:10) 0 0 0 0 0
16-11-2020 21.7 (05:40) 12.8 (00:00) 17.3 8.89 (02:50) 4.44 (03:50) 0 0 0 0 0
15-11-2020 23.9 (14:30) 12.5 (00:00) 18.2 5 (17:20) 2.5 (17:20) 0 0 0 0 0
14-11-2020 22.6 (11:00) 13.4 (00:00) 18 4.17 (13:10) 2.5 (13:10) 0 0 0 0 0
13-11-2020 22.5 (12:50) 12.2 (00:00) 17.3 4.44 (12:30) 2.22 (13:00) 0 0 0 0 0
12-11-2020 22.2 (12:00) 9.5 (00:00) 15.9 4.72 (14:20) 2.5 (14:20) 0 0 0 0 0
11-11-2020 21.1 (14:00) 11.5 (00:00) 16.3 4.44 (13:40) 1.94 (12:40) 0 0 0 0 0
10-11-2020 21.8 (09:50) 11.8 (00:00) 16.8 7.5 (13:00) 3.89 (13:00) 0 0 0 0 0
09-11-2020 23.2 (13:20) 11.3 (00:00) 17.3 3.89 (13:40) 2.22 (14:50) 0 0 0 0 0
08-11-2020 23 (12:10) 9.8 (00:00) 16.4 4.17 (13:20) 2.22 (13:50) 0 0 0 0 0
07-11-2020 23.4 (14:50) 12.6 (00:00) 18 12.78 (11:00) 5 (10:40) 2.8 0 1 1.8 0
06-11-2020 23.7 (14:20) 17.4 (00:00) 20.6 9.44 (23:50) 3.89 (13:50) 0 0 0 0 0
05-11-2020 20.7 (12:50) 16.9 (00:00) 18.8 8.33 (15:20) 2.78 (08:00) 0 0 0 0 0
04-11-2020 17.7 (10:10) 16.4 (00:00) 17.1 10.83 (13:40) 4.44 (17:00) 0 0 0 0 0
03-11-2020 22.4 (10:00) 11.5 (00:00) 16.9 5.28 (22:30) 2.78 (12:50) 0 0 0 0 0
02-11-2020 25.2 (14:30) 9.5 (00:00) 17.4 5 (12:40) 2.5 (16:10) 0 0 0 0 0

Gráficas

Temp. máximas Temp. mínimas Temp. medias Precipitaciones Rachas de viento máximas Velocidades máximas media en intervalos de 10 minutos

Datos horarios

Fecha y hora oficial Temperatura (ºC) Velocidad del viento (km/h) Dirección del viento Racha (km/h) Dirección de racha Precipitación (mm) Presión (hPa) Tendencia (hPa) Humedad (%)
2020-12-01 23:00:00 15 10 Noroeste 22 Noroeste 0 -- -- 55
2020-12-01 22:00:00 15 12 Oeste 27 Noroeste 0 -- -- 63
2020-12-01 21:00:00 14.9 9 Oeste 17 Oeste 0 -- -- 73
2020-12-01 20:00:00 15 5 Oeste 14 Sudoeste 0 -- -- 77
2020-12-01 19:00:00 15.1 5 Oeste 14 Oeste 0 -- -- 77
2020-12-01 18:00:00 15.4 6 Oeste 14 Oeste 0 -- -- 72
2020-12-01 17:00:00 15.9 7 Oeste 13 Oeste 0 -- -- 73
2020-12-01 16:00:00 16.8 4 Noroeste 14 Noroeste 0 -- -- 72
2020-12-01 15:00:00 17.4 3 Oeste 10 Norte 0 -- -- 71
2020-12-01 14:00:00 17.9 4 Norte 14 Norte 0 -- -- 65
2020-12-01 13:00:00 19.7 4 Oeste 18 Noroeste 0 -- -- 58
2020-12-01 12:00:00 18.5 6 Norte 16 Noroeste 0 -- -- 60
2020-12-01 11:00:00 17.1 8 Noroeste 19 Noroeste 0 -- -- 72
2020-12-01 10:00:00 15.4 0 Calma 4 Sudeste 0 -- -- 93
2020-12-01 09:00:00 10.4 0 Calma 2 Oeste 0 -- -- 99
2020-12-01 08:00:00 9 0 Calma 4 Norte 0 -- -- 99
2020-12-01 07:00:00 8.8 0 Calma 5 Sur 0 -- -- 99
2020-12-01 06:00:00 8.9 0 Calma 4 Norte 0 -- -- 98
2020-12-01 05:00:00 9 3 Noroeste 5 Norte 0 -- -- 99
2020-12-01 04:00:00 9 0 Calma -- -- 0 -- -- 98
2020-12-01 03:00:00 9.3 0 Calma 3 Norte 0 -- -- 97
2020-12-01 02:00:00 9.6 0 Calma 4 Norte 0 -- -- 97
2020-12-01 01:00:00 9.8 0 Calma 3 Norte 0 -- -- 96
2020-12-01 00:00:00 10.1 2 Norte 4 Norte 0 -- -- 95
2020-11-30 23:00:00 10.2 2 Norte 4 Noroeste 0 -- -- 94
2020-11-30 22:00:00 10.5 2 Norte 4 Norte 0 -- -- 94
2020-11-30 21:00:00 11 0 Calma 4 Oeste 0 -- -- 93
2020-11-30 20:00:00 11.3 0 Calma 4 Nordeste 0 -- -- 91
2020-11-30 19:00:00 12.5 0 Calma 4 Oeste 0 -- -- 89
2020-11-30 18:00:00 12.8 0 Calma 3 Norte 0 -- -- 86
2020-11-30 17:00:00 16.1 0 Calma 9 Sudeste 0 -- -- 72
2020-11-30 16:00:00 18.6 5 Sudeste 11 Sudeste 0 -- -- 64
2020-11-30 15:00:00 19 5 Sur 12 Sur 0 -- -- 60
2020-11-30 14:00:00 20.5 4 Sudeste 14 Sudeste 0 -- -- 51
2020-11-30 13:00:00 19.9 5 Sudeste 14 Sudeste 0 -- -- 49
2020-11-30 12:00:00 19.7 3 Sudeste 7 Sudeste 0 -- -- 55
2020-11-30 11:00:00 18.4 0 Calma 4 Sur 0 -- -- 65
2020-11-30 10:00:00 15.9 0 Calma 4 Norte 0 -- -- 72
2020-11-30 09:00:00 9.9 2 Norte 4 Norte 0 -- -- 90
2020-11-30 08:00:00 8.6 3 Norte 4 Norte 0 -- -- 93
2020-11-30 07:00:00 8.6 2 Norte 4 Noroeste 0 -- -- 95
2020-11-30 06:00:00 8.7 0 Calma 4 Noroeste 0 -- -- 95
2020-11-30 05:00:00 8.8 3 Noroeste 4 Noroeste 0 -- -- 96
2020-11-30 04:00:00 9.1 2 Norte 4 Norte 0 -- -- 97
2020-11-30 03:00:00 9.3 2 Norte 4 Nordeste 0 -- -- 97
2020-11-30 02:00:00 9.5 0 Calma 4 Norte 0 -- -- 98
2020-11-30 01:00:00 10 0 Calma 3 Norte 0 -- -- 98
2020-11-30 00:00:00 10.2 2 Norte 4 Noroeste 0 -- -- 98
2020-11-29 23:00:00 10.4 2 Noroeste 4 Noroeste 0 -- -- 98
2020-11-29 22:00:00 10.8 0 Calma 4 Noroeste 0 -- -- 98
2020-11-29 21:00:00 11.3 2 Noroeste 4 Noroeste 0 -- -- 97
2020-11-29 20:00:00 11.6 0 Calma 5 Oeste 0 -- -- 96
2020-11-29 19:00:00 12.5 0 Calma 3 Nordeste 0 -- -- 92
2020-11-29 18:00:00 14.7 0 Calma 10 Nordeste 0 -- -- 84
2020-11-29 17:00:00 16.5 3 Nordeste 14 Norte 0 -- -- 77
2020-11-29 16:00:00 16.8 5 Norte 20 Norte 0 -- -- 75
2020-11-29 15:00:00 17 7 Norte 21 Nordeste 0 -- -- 75
2020-11-29 14:00:00 17.4 10 Norte 24 Norte 0 -- -- 74
2020-11-29 13:00:00 18.1 15 Norte 25 Norte 0 -- -- 73
2020-11-29 12:00:00 17.4 12 Norte 27 Norte 0 -- -- 74
2020-11-29 11:00:00 16.7 6 Nordeste 22 Norte 0 -- -- 78
2020-11-29 10:00:00 16.4 8 Norte 26 Norte 0.2 -- -- 81
2020-11-29 09:00:00 16.3 11 Norte 30 Norte 0 -- -- 82
2020-11-29 08:00:00 16.2 9 Norte 25 Norte 0 -- -- 81
2020-11-29 07:00:00 16 8 Norte 22 Norte 0.2 -- -- 82
2020-11-29 06:00:00 16 8 Norte 22 Norte 0 -- -- 82
2020-11-29 05:00:00 14.8 4 Nordeste 17 Noroeste 0 -- -- 88
2020-11-29 04:00:00 14.5 3 Este 15 Noroeste 0 -- -- 90
2020-11-29 03:00:00 13.9 2 Nordeste 18 Nordeste 0.6 -- -- 95
2020-11-29 02:00:00 14.2 2 Sur 15 Norte 1.8 -- -- 95
2020-11-29 01:00:00 14.5 5 Este 28 Noroeste 0.2 -- -- 94
2020-11-29 00:00:00 12.3 0 Calma -- -- 0 -- -- 98
2020-11-28 23:00:00 12.5 0 Calma 4 Noroeste 0 -- -- 97
2020-11-28 22:00:00 12.2 0 Calma 6 Oeste 0 -- -- 96
2020-11-28 21:00:00 12.6 2 Oeste 8 Oeste 0 -- -- 95
2020-11-28 20:00:00 13.8 3 Sudoeste 24 Sudeste 0.2 -- -- 91
2020-11-28 19:00:00 15.3 7 Este 19 Este 0 -- -- 85
2020-11-28 18:00:00 15.2 5 Sudeste 14 Norte 0 -- -- 80
2020-11-28 17:00:00 15.5 6 Este 14 Este 0 -- -- 79
2020-11-28 16:00:00 15.6 7 Este 32 Sudeste 0.2 -- -- 83
2020-11-28 15:00:00 16.6 9 Nordeste 30 Nordeste 0 -- -- 84
2020-11-28 14:00:00 15.3 8 Norte 27 Norte 0.4 -- -- 87
2020-11-28 13:00:00 16.1 7 Este 25 Este 0 -- -- 81
2020-11-28 12:00:00 17.7 3 Este 15 Norte 0 -- -- 76
2020-11-28 11:00:00 16.1 3 Este 17 Norte 0 -- -- 83
2020-11-28 10:00:00 15.1 3 Noroeste 7 Noroeste 0 -- -- 88
2020-11-28 09:00:00 13.4 2 Noroeste 16 Norte 0 -- -- 92
2020-11-28 08:00:00 14.1 8 Norte 29 Noroeste 0.4 -- -- 88
2020-11-28 07:00:00 13.9 4 Noroeste 28 Oeste 0 -- -- 89
2020-11-28 06:00:00 12.8 12 Noroeste 35 Oeste 1.8 -- -- 95
2020-11-28 05:00:00 12.8 0 Calma 25 Sur 4.2 -- -- 98
2020-11-28 04:00:00 13.2 5 Sudoeste 30 Oeste 1.6 -- -- 97
2020-11-28 03:00:00 12.9 11 Oeste 22 Oeste 3.6 -- -- 98
2020-11-28 02:00:00 13.8 5 Sur 13 Oeste 1.6 -- -- 96
2020-11-28 01:00:00 13.9 4 Este 12 Este 1 -- -- 97
2020-11-28 00:00:00 12.8 2 Nordeste 5 Oeste 0 -- -- 98
2020-11-27 23:00:00 11.6 0 Calma 3 Oeste 0 -- -- 97
2020-11-27 22:00:00 11.9 0 Calma 4 Norte 0 -- -- 96
2020-11-27 21:00:00 12.4 2 Noroeste 9 Oeste 0 -- -- 93
2020-11-27 20:00:00 13.4 0 Calma 19 Sudeste 0.8 -- -- 89
2020-11-27 19:00:00 16.1 8 Sudeste 19 Sudeste 0.4 -- -- 88
2020-11-27 18:00:00 15.6 0 Calma 4 Nordeste 0 -- -- 87
2020-11-27 17:00:00 16.7 0 Calma 15 Sur 0 -- -- 81
2020-11-27 16:00:00 18 6 Sudeste 23 Este 0 -- -- 77
2020-11-27 15:00:00 18.7 9 Este 26 Este 0 -- -- 77
2020-11-27 14:00:00 18.9 10 Nordeste 26 Nordeste 0 -- -- 73
2020-11-27 13:00:00 18.8 6 Este 21 Este 0 -- -- 73
2020-11-27 12:00:00 18.3 5 Este 23 Nordeste 0 -- -- 75
2020-11-27 11:00:00 18.2 4 Este 17 Este 0 -- -- 76
2020-11-27 10:00:00 17.8 5 Este 15 Este 0 -- -- 79
2020-11-27 09:00:00 15.8 2 Este 11 Este 0 -- -- 89
2020-11-27 08:00:00 14.1 2 Norte 8 Este 0 -- -- 98
2020-11-27 07:00:00 13.2 2 Nordeste 5 Sudoeste 0 -- -- 99
2020-11-27 06:00:00 12.6 0 Calma 5 Sudoeste 0 -- -- 98
2020-11-27 05:00:00 12.7 0 Calma -- -- 0 -- -- 98
2020-11-27 04:00:00 12.2 0 Calma -- -- 0 -- -- 97
2020-11-27 03:00:00 12.6 0 Calma 4 Oeste 0 -- -- 96
2020-11-27 02:00:00 13.6 2 Oeste 6 Sudeste 0 -- -- 95
2020-11-27 01:00:00 14.2 0 Calma 5 Sur 0 -- -- 92
2020-11-27 00:00:00 16.1 3 Sur 10 Sur 0 -- -- 86
2020-11-26 23:00:00 16.6 4 Sur 14 Sudeste 0 -- -- 85
2020-11-26 22:00:00 15.6 3 Sudeste 9 Sur 0 -- -- 92
2020-11-26 21:00:00 14.9 0 Calma 5 Sudoeste 0 -- -- 94
2020-11-26 20:00:00 14.9 0 Calma 4 Sudoeste 0 -- -- 93
2020-11-26 19:00:00 15.2 2 Norte 3 Norte 0 -- -- 92
2020-11-26 18:00:00 16.6 0 Calma 16 Sudeste 0 -- -- 84
2020-11-26 17:00:00 17.5 0 Calma 12 Sudeste 0 -- -- 82
2020-11-26 16:00:00 18 2 Sudeste 12 Sur 0 -- -- 78
2020-11-26 15:00:00 18.5 2 Sudeste 13 Sudeste 0 -- -- 77
2020-11-26 14:00:00 18.9 5 Sudeste 11 Sudeste 0 -- -- 74
2020-11-26 13:00:00 18.6 3 Sudeste 14 Este 0 -- -- 75
2020-11-26 12:00:00 18.2 2 Noroeste 15 Sudeste 0 -- -- 75
2020-11-26 11:00:00 18.9 7 Sur 16 Sudeste 0 -- -- 72
2020-11-26 10:00:00 17.1 6 Sur 14 Sur 0 -- -- 78
2020-11-26 09:00:00 13.7 3 Sudoeste 8 Oeste 0 -- -- 96
2020-11-26 08:00:00 11.8 0 Calma 5 Sudeste 0 -- -- 96
2020-11-26 07:00:00 11.5 0 Calma 8 Sudoeste 0 -- -- 96
2020-11-26 06:00:00 11.3 2 Norte 6 Nordeste 0 -- -- 96
2020-11-26 05:00:00 10.2 0 Calma 4 Sudoeste 0 -- -- 96
2020-11-26 04:00:00 10.7 0 Calma 6 Sur 0 -- -- 96
2020-11-26 03:00:00 10.3 0 Calma 6 Sur 0 -- -- 96
2020-11-26 02:00:00 10.8 0 Calma 5 Oeste 0 -- -- 96
2020-11-26 01:00:00 10.4 2 Oeste 4 Oeste 0 -- -- 95
2020-11-26 00:00:00 10.6 0 Calma 5 Oeste 0 -- -- 95
2020-11-25 23:00:00 11 0 Calma 4 Sur 0 -- -- 92
2020-11-25 22:00:00 12.2 0 Calma 8 Sur 0 -- -- 88
2020-11-25 21:00:00 15 2 Noroeste 12 Este 0 -- -- 79
2020-11-25 20:00:00 16.4 6 Sudeste 21 Sur 0 -- -- 74
2020-11-25 19:00:00 16.4 7 Sudeste 17 Sudeste 0 -- -- 74
2020-11-25 18:00:00 15.1 5 Este 14 Sudeste 0 -- -- 77
2020-11-25 17:00:00 16.2 3 Este 17 Sudeste 0 -- -- 73
2020-11-25 16:00:00 17.5 4 Sur 17 Sudeste 0 -- -- 68
2020-11-25 15:00:00 18.1 6 Sudeste 15 Sudeste 0 -- -- 68
2020-11-25 14:00:00 17.7 5 Este 15 Sudeste 0 -- -- 66
2020-11-25 13:00:00 18.7 4 Sudeste 9 Sudeste 0 -- -- 60
2020-11-25 12:00:00 17 4 Nordeste 10 Sudeste 0 -- -- 69
2020-11-25 11:00:00 15.2 3 Noroeste 8 Oeste 0 -- -- 74
2020-11-25 10:00:00 13.1 0 Calma 4 Oeste 0 -- -- 87
2020-11-25 09:00:00 11.1 2 Este 12 Este 0 -- -- 93
2020-11-25 08:00:00 8.7 0 Calma 3 Sudoeste 0 -- -- 93
2020-11-25 07:00:00 10 0 Calma 3 Oeste 0 -- -- 93
2020-11-25 06:00:00 9.5 0 Calma 3 Sudoeste 0 -- -- 91
2020-11-25 05:00:00 10.4 0 Calma 3 Oeste 0 -- -- 92
2020-11-25 04:00:00 10.1 0 Calma 2 Norte 0 -- -- 90
2020-11-25 03:00:00 10.6 0 Calma 3 Norte 0 -- -- 88
2020-11-25 02:00:00 10.7 0 Calma 5 Sur 0 -- -- 86
2020-11-25 01:00:00 10.4 0 Calma 6 Nordeste 0 -- -- 87
2020-11-25 00:00:00 9.8 0 Calma 5 Oeste 0 -- -- 87
2020-11-24 23:00:00 9.7 0 Calma 6 Oeste 0 -- -- 87
2020-11-24 22:00:00 10 2 Norte 8 Oeste 0 -- -- 86
2020-11-24 21:00:00 10.1 0 Calma 4 Nordeste 0 -- -- 86
2020-11-24 20:00:00 9.7 0 Calma 4 Oeste 0 -- -- 86
2020-11-24 19:00:00 11.4 0 Calma 4 Noroeste 0 -- -- 79
2020-11-24 18:00:00 14.1 0 Calma 11 Sudoeste 0 -- -- 68
2020-11-24 17:00:00 16.3 2 Sudeste 14 Sudoeste 0 -- -- 59
2020-11-24 16:00:00 17.8 5 Oeste 22 Oeste 0 -- -- 55
2020-11-24 15:00:00 18.8 5 Oeste 15 Oeste 0 -- -- 49
2020-11-24 14:00:00 18.2 3 Noroeste 6 Noroeste 0 -- -- 54
2020-11-24 13:00:00 18.7 4 Sudoeste 20 Sudoeste 0 -- -- 54
2020-11-24 12:00:00 18.8 6 Sur 12 Oeste 0 -- -- 58
2020-11-24 11:00:00 17.4 0 Calma 4 Oeste 0 -- -- 65
2020-11-24 10:00:00 13.9 0 Calma 2 Sudoeste 0 -- -- 91
2020-11-24 09:00:00 7.8 0 Calma 3 Norte 0 -- -- 99
2020-11-24 08:00:00 5.9 0 Calma 2 Nordeste 0 -- -- 98
2020-11-24 07:00:00 6.1 0 Calma 2 Norte 0 -- -- 98
2020-11-24 06:00:00 6.1 0 Calma 3 Norte 0 -- -- 98
2020-11-24 05:00:00 6.4 0 Calma 2 Norte 0 -- -- 97
2020-11-24 04:00:00 6.5 0 Calma 2 Norte 0 -- -- 96
2020-11-24 03:00:00 6.9 0 Calma 3 Norte 0 -- -- 96
2020-11-24 02:00:00 7 0 Calma 2 Norte 0 -- -- 95
2020-11-24 01:00:00 7.4 0 Calma 3 Norte 0 -- -- 94
2020-11-24 00:00:00 7.7 0 Calma 4 Norte 0 -- -- 93
2020-11-23 23:00:00 8.2 3 Norte 4 Norte 0 -- -- 92
2020-11-23 22:00:00 8.4 0 Calma 5 Nordeste 0 -- -- 91
2020-11-23 21:00:00 8.7 0 Calma 6 Oeste 0 -- -- 90
2020-11-23 20:00:00 9.4 3 Oeste 6 Oeste 0 -- -- 89
2020-11-23 19:00:00 10.1 2 Norte 3 Norte 0 -- -- 87
2020-11-23 18:00:00 11.8 0 Calma 3 Sudoeste 0 -- -- 78
2020-11-23 17:00:00 15.3 0 Calma 9 Nordeste 0 -- -- 65
2020-11-23 16:00:00 16.1 4 Nordeste 10 Nordeste 0 -- -- 59
2020-11-23 15:00:00 16.7 4 Norte 11 Nordeste 0 -- -- 55
2020-11-23 14:00:00 17.7 4 Este 11 Sudeste 0 -- -- 53
2020-11-23 13:00:00 16.8 4 Sudeste 12 Este 0 -- -- 55
2020-11-23 12:00:00 17.1 4 Sur 11 Sur 0 -- -- 57
2020-11-23 11:00:00 17.4 4 Oeste 8 Sur 0 -- -- 53
2020-11-23 10:00:00 16.9 2 Oeste 5 Oeste 0 -- -- 63
2020-11-23 09:00:00 10.1 0 Calma 4 Nordeste 0 -- -- 88
2020-11-23 08:00:00 7.9 0 Calma 4 Norte 0 -- -- 91
2020-11-23 07:00:00 7.8 2 Norte 4 Nordeste 0 -- -- 90
2020-11-23 06:00:00 7.8 2 Norte 4 Noroeste 0 -- -- 89
2020-11-23 05:00:00 8 3 Noroeste 5 Oeste 0 -- -- 90
2020-11-23 04:00:00 7.9 2 Norte 4 Noroeste 0 -- -- 90
2020-11-23 03:00:00 7.8 2 Norte 4 Noroeste 0 -- -- 89
2020-11-23 02:00:00 8.2 2 Norte 5 Nordeste 0 -- -- 88
2020-11-23 01:00:00 8.5 3 Norte 7 Oeste 0 -- -- 88
2020-11-23 00:00:00 8.1 2 Noroeste 5 Nordeste 0 -- -- 88
2020-11-22 23:00:00 8.5 2 Norte 5 Nordeste 0 -- -- 87
2020-11-22 22:00:00 8.8 0 Calma 3 Norte 0 -- -- 86
2020-11-22 21:00:00 9.6 2 Norte 6 Norte 0 -- -- 84
2020-11-22 20:00:00 9.6 0 Calma 4 Nordeste 0 -- -- 83
2020-11-22 19:00:00 9.6 0 Calma 4 Nordeste 0 -- -- 82
2020-11-22 18:00:00 12 0 Calma 5 Nordeste 0 -- -- 71
2020-11-22 17:00:00 14.3 3 Nordeste 18 Norte 0 -- -- 62
2020-11-22 16:00:00 15.3 9 Norte 21 Nordeste 0 -- -- 59
2020-11-22 15:00:00 15.8 10 Norte 26 Norte 0 -- -- 54
2020-11-22 14:00:00 16.6 13 Norte 27 Nordeste 0 -- -- 54
2020-11-22 13:00:00 16.7 13 Norte 25 Norte 0 -- -- 55
2020-11-22 12:00:00 15.6 12 Norte 24 Norte 0 -- -- 58
2020-11-22 11:00:00 15.4 10 Norte 25 Norte 0 -- -- 61
2020-11-22 10:00:00 15.1 8 Norte 19 Nordeste 0 -- -- 61
2020-11-22 09:00:00 14.4 5 Nordeste 13 Nordeste 0 -- -- 59
2020-11-22 08:00:00 13.6 5 Norte 14 Norte 0 -- -- 66
2020-11-22 07:00:00 13.4 5 Norte 17 Norte 0 -- -- 64
2020-11-22 06:00:00 13.8 3 Este 19 Norte 0 -- -- 64
2020-11-22 05:00:00 13.9 6 Nordeste 18 Norte 0 -- -- 65
2020-11-22 04:00:00 13.5 4 Norte 14 Norte 0 -- -- 65
2020-11-22 03:00:00 13.4 4 Norte 15 Norte 0 -- -- 63
2020-11-22 02:00:00 13.4 4 Nordeste 14 Nordeste 0 -- -- 64
2020-11-22 01:00:00 13.6 5 Norte 15 Norte 0 -- -- 61
2020-11-22 00:00:00 13.9 7 Norte 15 Norte 0 -- -- 62
2020-11-21 23:00:00 12.9 2 Sudeste 9 Norte 0 -- -- 68
2020-11-21 22:00:00 13.4 2 Sudeste 16 Nordeste 0 -- -- 64
2020-11-21 21:00:00 13.4 2 Sudoeste 15 Norte 0 -- -- 66
2020-11-21 20:00:00 14 8 Norte 17 Norte 0 -- -- 66
2020-11-21 19:00:00 13.8 5 Norte 19 Norte 0 -- -- 67
2020-11-21 18:00:00 13.6 3 Nordeste 21 Nordeste 0 -- -- 67
2020-11-21 17:00:00 14.2 5 Norte 21 Nordeste 0 -- -- 67
2020-11-21 16:00:00 14.7 9 Norte 19 Norte 0 -- -- 65
2020-11-21 15:00:00 15.3 9 Norte 25 Nordeste 0 -- -- 64
2020-11-21 14:00:00 15.4 13 Norte 34 Norte 0 -- -- 62
2020-11-21 13:00:00 15.4 12 Nordeste 27 Norte 0 -- -- 57
2020-11-21 12:00:00 15.2 12 Norte 29 Nordeste 0 -- -- 55
2020-11-21 11:00:00 14.9 15 Norte 28 Norte 0 -- -- 52
2020-11-21 10:00:00 14.3 14 Nordeste 31 Nordeste 0 -- -- 59
2020-11-21 09:00:00 13.5 12 Norte 28 Nordeste 0 -- -- 58
2020-11-21 08:00:00 13.1 10 Norte 35 Norte 0 -- -- 57
2020-11-21 07:00:00 13.3 13 Norte 35 Norte 0 -- -- 56
2020-11-21 06:00:00 13.4 15 Norte 33 Norte 0 -- -- 54
2020-11-21 05:00:00 13.5 15 Norte 33 Norte 0 -- -- 51
2020-11-21 04:00:00 13.3 10 Nordeste 33 Norte 0 -- -- 51
2020-11-21 03:00:00 13.3 11 Nordeste 34 Norte 0 -- -- 54
2020-11-21 02:00:00 13.3 12 Nordeste 37 Nordeste 0 -- -- 55
2020-11-21 01:00:00 13.3 12 Norte 28 Norte 0 -- -- 57
2020-11-21 00:00:00 13.5 9 Norte 30 Nordeste 0 -- -- 54
2020-11-20 23:00:00 13.8 8 Nordeste 33 Este 0 -- -- 51
2020-11-20 22:00:00 14.4 12 Nordeste 28 Norte 0 -- -- 49
2020-11-20 21:00:00 14.8 10 Nordeste 33 Nordeste 0 -- -- 51
2020-11-20 20:00:00 15 8 Nordeste 26 Este 0 -- -- 59
2020-11-20 19:00:00 14.8 7 Este 17 Este 0 -- -- 52
2020-11-20 18:00:00 14.8 3 Nordeste 20 Este 0 -- -- 44
2020-11-20 17:00:00 15.9 7 Nordeste 23 Nordeste 0 -- -- 41
2020-11-20 16:00:00 16.8 16 Norte 28 Nordeste 0 -- -- 28
2020-11-20 15:00:00 17.5 13 Norte 26 Noroeste 0 -- -- 54
2020-11-20 14:00:00 17.9 13 Norte 28 Nordeste 0 -- -- 53
2020-11-20 13:00:00 17.3 13 Norte 33 Norte 0 -- -- 48
2020-11-20 12:00:00 16.9 15 Norte 34 Norte 0 -- -- 49
2020-11-20 11:00:00 16.1 12 Norte 25 Norte 0 -- -- 58
2020-11-20 10:00:00 15.5 7 Nordeste 17 Este 0 -- -- 65
2020-11-20 09:00:00 15.5 4 Nordeste 21 Norte 0 -- -- 68
2020-11-20 08:00:00 15.3 5 Nordeste 18 Nordeste 0 -- -- 67
2020-11-20 07:00:00 15.5 4 Norte 19 Este 0 -- -- 71
2020-11-20 06:00:00 15.5 0 Calma 9 Este 0 -- -- 74
2020-11-20 05:00:00 15.7 4 Este 13 Nordeste 0 -- -- 71
2020-11-20 04:00:00 15.6 3 Este 10 Este 0 -- -- 69
2020-11-20 03:00:00 15.3 0 Calma 12 Nordeste 0 -- -- 74
2020-11-20 02:00:00 16.2 2 Este 15 Este 0 -- -- 69
2020-11-20 01:00:00 16.9 8 Este 25 Este 0 -- -- 72
2020-11-20 00:00:00 13.7 2 Noroeste 5 Oeste 0 -- -- 91
2020-11-19 23:00:00 14.8 0 Calma 14 Sudoeste 0 -- -- 84
2020-11-19 22:00:00 16.2 3 Oeste 12 Oeste 0 -- -- 80
2020-11-19 21:00:00 16.3 2 Noroeste 6 Oeste 0 -- -- 85
2020-11-19 20:00:00 16.3 4 Oeste 10 Oeste 0 -- -- 83
2020-11-19 19:00:00 15.5 4 Oeste 10 Oeste 0 -- -- 87
2020-11-19 18:00:00 15.8 0 Calma 4 Oeste 0 -- -- 84
2020-11-19 17:00:00 18.8 3 Este 9 Nordeste 0 -- -- 68
2020-11-19 16:00:00 20.6 5 Este 12 Nordeste 0 -- -- 61
2020-11-19 15:00:00 21 3 Nordeste 17 Oeste 0 -- -- 58
2020-11-19 14:00:00 22.4 4 Noroeste 17 Norte 0 -- -- 52
2020-11-19 13:00:00 21.3 4 Oeste 15 Noroeste 0 -- -- 54
2020-11-19 12:00:00 20 7 Noroeste 17 Noroeste 0 -- -- 65
2020-11-19 11:00:00 19.2 7 Noroeste 18 Noroeste 0 -- -- 69
2020-11-19 10:00:00 16.6 0 Calma 5 Oeste 0 -- -- 87
2020-11-19 09:00:00 13.9 0 Calma 4 Norte 0 -- -- 95
2020-11-19 08:00:00 12.3 2 Noroeste 4 Norte 0 -- -- 96
2020-11-19 07:00:00 12.7 0 Calma 3 Noroeste 0 -- -- 96
2020-11-19 06:00:00 12 0 Calma 3 Nordeste 0 -- -- 96
2020-11-19 05:00:00 13 0 Calma 4 Nordeste 0 -- -- 94
2020-11-19 04:00:00 13.2 2 Norte 3 Nordeste 0 -- -- 95
2020-11-19 03:00:00 12.5 0 Calma 4 Norte 0 -- -- 96
2020-11-19 02:00:00 10.8 2 Norte 3 Noroeste 0 -- -- 96
2020-11-19 01:00:00 10.8 0 Calma 3 Norte 0 -- -- 95
2020-11-19 00:00:00 10.6 2 Norte 3 Norte 0 -- -- 94
2020-11-18 23:00:00 10.7 2 Norte 3 Norte 0 -- -- 93
2020-11-18 22:00:00 10.8 0 Calma 4 Norte 0 -- -- 93
2020-11-18 21:00:00 11.5 0 Calma 4 Nordeste 0 -- -- 93
2020-11-18 20:00:00 12.3 2 Norte 4 Norte 0 -- -- 93
2020-11-18 19:00:00 13 0 Calma 4 Nordeste 0 -- -- 91
2020-11-18 18:00:00 14.4 2 Norte 5 Norte 0 -- -- 86
2020-11-18 17:00:00 17.3 4 Nordeste 8 Nordeste 0 -- -- 72
2020-11-18 16:00:00 18.6 3 Sudeste 12 Este 0 -- -- 69
2020-11-18 15:00:00 19.3 6 Este 13 Sudeste 0 -- -- 66
2020-11-18 14:00:00 20.7 5 Sudeste 13 Sudeste 0 -- -- 60
2020-11-18 13:00:00 20.5 7 Este 14 Sudeste 0 -- -- 60
2020-11-18 12:00:00 20.2 4 Norte 10 Norte 0 -- -- 59
2020-11-18 11:00:00 20 4 Sudoeste 8 Sur 0 -- -- 68
2020-11-18 10:00:00 20.4 2 Sur 4 Sur 0 -- -- 69
2020-11-18 09:00:00 13 0 Calma 4 Norte 0 -- -- 97
2020-11-18 08:00:00 10.3 2 Norte 4 Norte 0 -- -- 98
2020-11-18 07:00:00 10.2 2 Norte 4 Nordeste 0 -- -- 99
2020-11-18 06:00:00 10 0 Calma 3 Norte 0 -- -- 98
2020-11-18 05:00:00 10.5 0 Calma 4 Norte 0 -- -- 97
2020-11-18 04:00:00 10.6 0 Calma 4 Norte 0 -- -- 97
2020-11-18 03:00:00 11 0 Calma 4 Noroeste 0 -- -- 96
2020-11-18 02:00:00 11.3 2 Norte 4 Nordeste 0 -- -- 95
2020-11-18 01:00:00 12 0 Calma 3 Norte 0 -- -- 95
2020-11-18 00:00:00 12.3 0 Calma 5 Oeste 0 -- -- 93
2020-11-17 23:00:00 13.2 2 Oeste 6 Oeste 0 -- -- 91
2020-11-17 22:00:00 14.3 3 Oeste 10 Oeste 0 -- -- 87
2020-11-17 21:00:00 16.2 0 Calma 13 Noroeste 0 -- -- 78
2020-11-17 20:00:00 16.7 5 Oeste 15 Noroeste 0 -- -- 78
2020-11-17 19:00:00 17.1 7 Noroeste 18 Oeste 0 -- -- 78
2020-11-17 18:00:00 17.1 4 Noroeste 18 Nordeste 0 -- -- 78
2020-11-17 17:00:00 17.8 5 Noroeste 18 Noroeste 0 -- -- 74
2020-11-17 16:00:00 18.9 7 Noroeste 19 Oeste 0 -- -- 69
2020-11-17 15:00:00 19.5 9 Norte 24 Noroeste 0 -- -- 65
2020-11-17 14:00:00 19.7 10 Norte 22 Noroeste 0 -- -- 64
2020-11-17 13:00:00 19.6 7 Norte 19 Norte 0 -- -- 66
2020-11-17 12:00:00 20.1 10 Norte 18 Norte 0 -- -- 64
2020-11-17 11:00:00 19.7 5 Noroeste 19 Oeste 0 -- -- 65
2020-11-17 10:00:00 18.9 7 Noroeste 19 Oeste 0 -- -- 68
2020-11-17 09:00:00 14.5 0 Calma 5 Norte 0 -- -- 92
2020-11-17 08:00:00 11.7 0 Calma 3 Norte 0 -- -- 95
2020-11-17 07:00:00 11.8 0 Calma 3 Norte 0 -- -- 95
2020-11-17 06:00:00 11.8 3 Norte 4 Nordeste 0 -- -- 94
2020-11-17 05:00:00 12.8 0 Calma 4 Norte 0 -- -- 92
2020-11-17 04:00:00 13.3 2 Norte 4 Noroeste 0 -- -- 91
2020-11-17 03:00:00 12.7 2 Noroeste 6 Oeste 0 -- -- 93
2020-11-17 02:00:00 13 0 Calma 6 Oeste 0 -- -- 90
2020-11-17 01:00:00 14.7 0 Calma 5 Oeste 0 -- -- 86
2020-11-17 00:00:00 15 0 Calma 3 Oeste 0 -- -- 87
2020-11-16 23:00:00 15.2 0 Calma 5 Nordeste 0 -- -- 86
2020-11-16 22:00:00 15.1 0 Calma 3 Oeste 0 -- -- 84
2020-11-16 21:00:00 15.5 0 Calma 4 Oeste 0 -- -- 83
2020-11-16 20:00:00 15.1 0 Calma 5 Sudoeste 0 -- -- 83
2020-11-16 19:00:00 14.3 0 Calma -- -- 0 -- -- 85
2020-11-16 18:00:00 15.1 0 Calma 7 Este 0 -- -- 77
2020-11-16 17:00:00 17 4 Este 13 Este 0 -- -- 69
2020-11-16 16:00:00 17.6 6 Este 21 Este 0 -- -- 67
2020-11-16 15:00:00 18.1 7 Este 20 Nordeste 0 -- -- 69
2020-11-16 14:00:00 18.6 9 Este 29 Este 0 -- -- 67
2020-11-16 13:00:00 19 10 Este 26 Este 0 -- -- 63
2020-11-16 12:00:00 18.6 9 Este 19 Este 0 -- -- 66
2020-11-16 11:00:00 18.2 4 Nordeste 17 Norte 0 -- -- 72
2020-11-16 10:00:00 18.2 6 Este 23 Nordeste 0 -- -- 77
2020-11-16 09:00:00 18.4 3 Este 19 Norte 0 -- -- 84
2020-11-16 08:00:00 20 10 Norte 22 Norte 0 -- -- 78
2020-11-16 07:00:00 21.2 11 Oeste 24 Oeste 0 -- -- 63
2020-11-16 06:00:00 21.7 13 Oeste 26 Oeste 0 -- -- 61
2020-11-16 05:00:00 20.1 3 Noroeste 29 Oeste 0 -- -- 68
2020-11-16 04:00:00 21.5 16 Oeste 28 Oeste 0 -- -- 63
2020-11-16 03:00:00 20.8 11 Oeste 32 Oeste 0 -- -- 65
2020-11-16 02:00:00 13.8 3 Sudoeste 9 Sur 0 -- -- 94
2020-11-16 01:00:00 13.3 0 Calma 5 Noroeste 0 -- -- 94
2020-11-16 00:00:00 12.8 0 Calma 4 Oeste 0 -- -- 95
2020-11-15 23:00:00 12.5 0 Calma 3 Nordeste 0 -- -- 95
2020-11-15 22:00:00 13 0 Calma 6 Sur 0 -- -- 94
2020-11-15 21:00:00 13.5 0 Calma 3 Norte 0 -- -- 94
2020-11-15 20:00:00 14.2 0 Calma 4 Sudoeste 0 -- -- 91
2020-11-15 19:00:00 15.7 0 Calma 4 Norte 0 -- -- 87
2020-11-15 18:00:00 17.8 4 Norte 18 Sur 0 -- -- 75
2020-11-15 17:00:00 20.3 4 Sur 12 Sur 0 -- -- 70
2020-11-15 16:00:00 22.1 5 Nordeste 10 Nordeste 0 -- -- 65
2020-11-15 15:00:00 22.4 3 Sur 9 Sur 0 -- -- 69
2020-11-15 14:00:00 21.2 3 Sudeste 8 Sudeste 0 -- -- 75
2020-11-15 13:00:00 20.8 4 Nordeste 12 Norte 0 -- -- 72
2020-11-15 12:00:00 22.4 3 Nordeste 7 Oeste 0 -- -- 65
2020-11-15 11:00:00 21.3 3 Sudeste 8 Sudeste 0 -- -- 70
2020-11-15 10:00:00 20.5 0 Calma 4 Sur 0 -- -- 77
2020-11-15 09:00:00 14.3 0 Calma 2 Sudoeste 0 -- -- 98
2020-11-15 08:00:00 12.9 0 Calma 3 Nordeste 0 -- -- 98
2020-11-15 07:00:00 13 0 Calma 2 Norte 0 -- -- 97
2020-11-15 06:00:00 13.5 0 Calma 2 Oeste 0 -- -- 96
2020-11-15 05:00:00 14.6 0 Calma 4 Norte 0 -- -- 95
2020-11-15 04:00:00 15.3 0 Calma 2 Norte 0 -- -- 94
2020-11-15 03:00:00 15.9 0 Calma 3 Noroeste 0 -- -- 93
2020-11-15 02:00:00 15.7 0 Calma 3 Sur 0 -- -- 94
2020-11-15 01:00:00 15.7 0 Calma 2 Norte 0 -- -- 93
2020-11-15 00:00:00 15.8 0 Calma 3 Norte 0 -- -- 92
2020-11-14 23:00:00 16 0 Calma 3 Norte 0 -- -- 92
2020-11-14 22:00:00 16 0 Calma 3 Noroeste 0 -- -- 92
2020-11-14 21:00:00 16.4 0 Calma 3 Oeste 0 -- -- 91
2020-11-14 20:00:00 16.5 0 Calma 4 Nordeste 0 -- -- 89
2020-11-14 19:00:00 16.9 0 Calma 4 Nordeste 0 -- -- 88
2020-11-14 18:00:00 17.2 0 Calma 3 Sudoeste 0 -- -- 84
2020-11-14 17:00:00 19.4 2 Sudoeste 5 Sudoeste 0 -- -- 72
2020-11-14 16:00:00 20.7 3 Norte 6 Nordeste 0 -- -- 65
2020-11-14 15:00:00 21.3 3 Noroeste 13 Oeste 0 -- -- 63
2020-11-14 14:00:00 21.7 4 Oeste 15 Nordeste 0 -- -- 69
2020-11-14 13:00:00 22.4 5 Este 12 Sudeste 0 -- -- 67
2020-11-14 12:00:00 21.7 4 Sudeste 11 Sudeste 0 -- -- 72
2020-11-14 11:00:00 22.6 3 Sudeste 8 Sudeste 0 -- -- 70
2020-11-14 10:00:00 20.6 2 Noroeste 6 Noroeste 0 -- -- 90
2020-11-14 09:00:00 16 0 Calma 4 Oeste 0 -- -- 99
2020-11-14 08:00:00 14.1 0 Calma 4 Norte 0 -- -- 99
2020-11-14 07:00:00 13.8 0 Calma 4 Oeste 0 -- -- 99
2020-11-14 06:00:00 13.7 2 Norte 3 Norte 0 -- -- 99
2020-11-14 05:00:00 13.7 2 Noroeste 3 Norte 0 -- -- 99
2020-11-14 04:00:00 13.4 0 Calma 3 Norte 0 -- -- 99
2020-11-14 03:00:00 14 2 Noroeste 5 Noroeste 0 -- -- 99
2020-11-14 02:00:00 14 0 Calma 3 Norte 0 -- -- 98
2020-11-14 01:00:00 14.3 0 Calma 2 Norte 0 -- -- 98
2020-11-14 00:00:00 14.6 0 Calma 3 Nordeste 0 -- -- 98
2020-11-13 23:00:00 14.6 0 Calma 3 Noroeste 0 -- -- 97
2020-11-13 22:00:00 14.6 0 Calma 3 Norte 0 -- -- 97
2020-11-13 21:00:00 14.7 2 Norte 4 Norte 0 -- -- 96
2020-11-13 20:00:00 15.2 0 Calma 3 Nordeste 0 -- -- 95
2020-11-13 19:00:00 16 0 Calma -- -- 0 -- -- 93
2020-11-13 18:00:00 17.1 0 Calma 3 Sur 0 -- -- 89
2020-11-13 17:00:00 19.7 0 Calma 12 Nordeste 0 -- -- 79
2020-11-13 16:00:00 20.7 6 Nordeste 12 Este 0 -- -- 74
2020-11-13 15:00:00 20.9 7 Este 14 Nordeste 0 -- -- 72
2020-11-13 14:00:00 21.5 6 Nordeste 15 Nordeste 0 -- -- 71
2020-11-13 13:00:00 21.9 8 Nordeste 16 Sudeste 0 -- -- 70
2020-11-13 12:00:00 22.1 4 Sur 14 Sur 0 -- -- 68
2020-11-13 11:00:00 20.6 5 Sudeste 10 Sudeste 0 -- -- 76
2020-11-13 10:00:00 18.5 0 Calma 2 Nordeste 0 -- -- 93
2020-11-13 09:00:00 15 0 Calma 3 Noroeste 0 -- -- 98
2020-11-13 08:00:00 12.7 0 Calma 4 Noroeste 0 -- -- 99
2020-11-13 07:00:00 12.3 0 Calma 2 Oeste 0 -- -- 98
2020-11-13 06:00:00 12.3 0 Calma 2 Noroeste 0 -- -- 98
2020-11-13 05:00:00 12.5 0 Calma 3 Norte 0 -- -- 97
2020-11-13 04:00:00 12.7 0 Calma 3 Norte 0 -- -- 97
2020-11-13 03:00:00 12.8 0 Calma 4 Norte 0 -- -- 97
2020-11-13 02:00:00 12.3 0 Calma 3 Norte 0 -- -- 98
2020-11-13 01:00:00 12.4 0 Calma 2 Noroeste 0 -- -- 97
2020-11-13 00:00:00 12.3 0 Calma 5 Oeste 0 -- -- 96
2020-11-12 23:00:00 12.7 0 Calma 4 Noroeste 0 -- -- 95
2020-11-12 22:00:00 12.9 2 Norte 3 Nordeste 0 -- -- 95
2020-11-12 21:00:00 13.4 0 Calma 4 Oeste 0 -- -- 93
2020-11-12 20:00:00 13.9 0 Calma 3 Noroeste 0 -- -- 91
2020-11-12 19:00:00 14.6 0 Calma 2 Oeste 0 -- -- 89
2020-11-12 18:00:00 16.1 0 Calma 7 Nordeste 0 -- -- 82
2020-11-12 17:00:00 18.5 5 Nordeste 14 Este 0 -- -- 70
2020-11-12 16:00:00 19.6 6 Este 15 Nordeste 0 -- -- 63
2020-11-12 15:00:00 20.3 9 Nordeste 17 Nordeste 0 -- -- 60
2020-11-12 14:00:00 21.3 9 Nordeste 15 Este 0 -- -- 57
2020-11-12 13:00:00 22.1 5 Sudeste 10 Sudeste 0 -- -- 45
2020-11-12 12:00:00 22.2 4 Sur 8 Sur 0 -- -- 47
2020-11-12 11:00:00 21.9 2 Sudoeste 5 Sudeste 0 -- -- 54
2020-11-12 10:00:00 19.7 0 Calma 4 Norte 0 -- -- 58
2020-11-12 09:00:00 12.5 0 Calma 4 Norte 0 -- -- 86
2020-11-12 08:00:00 9.8 0 Calma 4 Norte 0 -- -- 92
2020-11-12 07:00:00 9.9 0 Calma 4 Norte 0 -- -- 95
2020-11-12 06:00:00 9.8 0 Calma 4 Nordeste 0 -- -- 97
2020-11-12 05:00:00 10 0 Calma 3 Oeste 0 -- -- 97
2020-11-12 04:00:00 10.4 0 Calma 4 Norte 0 -- -- 97
2020-11-12 03:00:00 10.3 0 Calma 4 Oeste 0 -- -- 98
2020-11-12 02:00:00 10.5 2 Norte 6 Oeste 0 -- -- 98
2020-11-12 01:00:00 10.8 0 Calma 3 Norte 0 -- -- 97
2020-11-12 00:00:00 11.6 0 Calma 4 Norte 0 -- -- 97
2020-11-11 23:00:00 12 0 Calma 3 Norte 0 -- -- 95
2020-11-11 22:00:00 12.8 0 Calma 8 Sur 0 -- -- 94
2020-11-11 21:00:00 13.4 0 Calma 4 Nordeste 0 -- -- 92
2020-11-11 20:00:00 15.2 0 Calma 5 Sudoeste 0 -- -- 88
2020-11-11 19:00:00 16.1 0 Calma 4 Sur 0 -- -- 85
2020-11-11 18:00:00 16 0 Calma 3 Nordeste 0 -- -- 85
2020-11-11 17:00:00 17.3 0 Calma 12 Nordeste 0 -- -- 77
2020-11-11 16:00:00 18.9 6 Este 13 Nordeste 0 -- -- 70
2020-11-11 15:00:00 19.6 6 Nordeste 15 Sudeste 0 -- -- 66
2020-11-11 14:00:00 21.1 6 Este 16 Este 0 -- -- 60
2020-11-11 13:00:00 19.5 4 Sudeste 15 Sudeste 0 -- -- 66
2020-11-11 12:00:00 20.6 6 Sudeste 13 Sudeste 0 -- -- 58
2020-11-11 11:00:00 20.6 4 Sudeste 10 Sudeste 0 -- -- 63
2020-11-11 10:00:00 19.2 0 Calma 4 Oeste 0 -- -- 73
2020-11-11 09:00:00 15 2 Noroeste 6 Oeste 0 -- -- 95
2020-11-11 08:00:00 11.5 0 Calma 4 Nordeste 0 -- -- 98
2020-11-11 07:00:00 11.6 2 Norte 4 Norte 0 -- -- 98
2020-11-11 06:00:00 12 2 Norte 4 Norte 0 -- -- 98
2020-11-11 05:00:00 12.2 0 Calma 4 Oeste 0 -- -- 97
2020-11-11 04:00:00 12.1 3 Noroeste 5 Oeste 0 -- -- 98
2020-11-11 03:00:00 12.3 0 Calma 3 Oeste 0 -- -- 97
2020-11-11 02:00:00 12.5 3 Noroeste 5 Noroeste 0 -- -- 96
2020-11-11 01:00:00 12.8 0 Calma 5 Noroeste 0 -- -- 96
2020-11-11 00:00:00 13.2 0 Calma 4 Oeste 0 -- -- 95
2020-11-10 23:00:00 13.4 0 Calma 4 Oeste 0 -- -- 95
2020-11-10 22:00:00 13.4 0 Calma 6 Sudoeste 0 -- -- 93
2020-11-10 21:00:00 13.9 0 Calma 7 Oeste 0 -- -- 93
2020-11-10 20:00:00 15 0 Calma 5 Norte 0 -- -- 88
2020-11-10 19:00:00 16.7 2 Norte 10 Nordeste 0 -- -- 82
2020-11-10 18:00:00 17.4 3 Norte 12 Norte 0 -- -- 80
2020-11-10 17:00:00 18 8 Norte 15 Norte 0 -- -- 78
2020-11-10 16:00:00 19.1 6 Norte 19 Norte 0 -- -- 74
2020-11-10 15:00:00 20.4 7 Norte 21 Oeste 0 -- -- 70
2020-11-10 14:00:00 21.1 8 Noroeste 25 Norte 0 -- -- 63
2020-11-10 13:00:00 20.3 14 Noroeste 27 Noroeste 0 -- -- 66
2020-11-10 12:00:00 20.6 9 Noroeste 23 Noroeste 0 -- -- 65
2020-11-10 11:00:00 20.3 9 Noroeste 17 Norte 0 -- -- 67
2020-11-10 10:00:00 21.2 5 Oeste 13 Oeste 0 -- -- 66
2020-11-10 09:00:00 17 4 Oeste 10 Oeste 0 -- -- 89
2020-11-10 08:00:00 13.5 3 Oeste 8 Oeste 0 -- -- 98
2020-11-10 07:00:00 12.1 0 Calma 5 Sudoeste 0 -- -- 98
2020-11-10 06:00:00 12.2 2 Noroeste 4 Norte 0 -- -- 99
2020-11-10 05:00:00 12 2 Noroeste 5 Norte 0 -- -- 98
2020-11-10 04:00:00 11.9 0 Calma 6 Noroeste 0 -- -- 98
2020-11-10 03:00:00 12 2 Noroeste 5 Oeste 0 -- -- 97
2020-11-10 02:00:00 12.6 0 Calma 10 Sudoeste 0 -- -- 97
2020-11-10 01:00:00 12.4 0 Calma 6 Oeste 0 -- -- 96
2020-11-10 00:00:00 12.6 0 Calma 4 Norte 0 -- -- 97
2020-11-09 23:00:00 12.8 0 Calma 3 Norte 0 -- -- 97
2020-11-09 22:00:00 13.1 2 Norte 3 Norte 0 -- -- 96
2020-11-09 21:00:00 13.8 2 Norte 3 Nordeste 0 -- -- 94
2020-11-09 20:00:00 14.9 0 Calma 4 Norte 0 -- -- 93
2020-11-09 19:00:00 16.2 2 Norte 3 Nordeste 0 -- -- 91
2020-11-09 18:00:00 17.9 0 Calma 8 Sudoeste 0 -- -- 84
2020-11-09 17:00:00 19.4 4 Oeste 10 Oeste 0 -- -- 77
2020-11-09 16:00:00 20.6 5 Oeste 13 Oeste 0 -- -- 75
2020-11-09 15:00:00 21.3 6 Oeste 14 Noroeste 0 -- -- 73
2020-11-09 14:00:00 23.1 6 Sur 14 Sur 0 -- -- 65
2020-11-09 13:00:00 22.6 6 Sudeste 13 Sudeste 0 -- -- 69
2020-11-09 12:00:00 22.4 4 Sur 9 Sur 0 -- -- 69
2020-11-09 11:00:00 21.7 2 Sudeste 6 Sur 0 -- -- 72
2020-11-09 10:00:00 19 0 Calma 3 Norte 0 -- -- 94
2020-11-09 09:00:00 14.5 0 Calma 5 Norte 0 -- -- 99
2020-11-09 08:00:00 11.8 0 Calma 3 Norte 0 -- -- 100
2020-11-09 07:00:00 11.7 0 Calma 2 Norte 0 -- -- 99
2020-11-09 06:00:00 11.6 0 Calma 3 Sudeste 0 -- -- 100
2020-11-09 05:00:00 11.5 0 Calma 4 Norte 0 -- -- 99
2020-11-09 04:00:00 12.3 0 Calma 3 Norte 0 -- -- 99
2020-11-09 03:00:00 12.9 0 Calma 3 Norte 0 -- -- 99
2020-11-09 02:00:00 13.4 2 Norte 3 Norte 0 -- -- 99
2020-11-09 01:00:00 13.5 0 Calma 5 Oeste 0 -- -- 98
2020-11-09 00:00:00 13.4 0 Calma 3 Norte 0 -- -- 98
2020-11-08 23:00:00 13.6 0 Calma 3 Norte 0 -- -- 98
2020-11-08 22:00:00 14 0 Calma 3 Norte 0 -- -- 97
2020-11-08 21:00:00 14.4 0 Calma 3 Norte 0 -- -- 96
2020-11-08 20:00:00 14.8 0 Calma 2 Norte 0 -- -- 95
2020-11-08 19:00:00 15.4 0 Calma 4 Oeste 0 -- -- 93
2020-11-08 18:00:00 16.7 0 Calma 2 Norte 0 -- -- 88
2020-11-08 17:00:00 19.9 0 Calma 5 Norte 0 -- -- 75
2020-11-08 16:00:00 21.1 4 Norte 12 Nordeste 0 -- -- 68
2020-11-08 15:00:00 21 8 Nordeste 12 Nordeste 0 -- -- 69
2020-11-08 14:00:00 22.3 8 Norte 15 Norte 0 -- -- 63
2020-11-08 13:00:00 22.6 5 Norte 13 Nordeste 0 -- -- 55
2020-11-08 12:00:00 22.6 3 Sudeste 10 Sudeste 0 -- -- 56
2020-11-08 11:00:00 21.4 2 Sur 8 Sudeste 0 -- -- 64
2020-11-08 10:00:00 17.5 0 Calma 3 Sur 0 -- -- 88
2020-11-08 09:00:00 13 2 Oeste 8 Sudeste 0 -- -- 98
2020-11-08 08:00:00 10 0 Calma 3 Norte 0 -- -- 99
2020-11-08 07:00:00 10 0 Calma 3 Norte 0 -- -- 98
2020-11-08 06:00:00 10.1 0 Calma 2 Noroeste 0 -- -- 98
2020-11-08 05:00:00 10.5 0 Calma 3 Nordeste 0 -- -- 98
2020-11-08 04:00:00 10.9 0 Calma 3 Norte 0 -- -- 97
2020-11-08 03:00:00 11.3 0 Calma 3 Norte 0 -- -- 97
2020-11-08 02:00:00 11.6 0 Calma 4 Nordeste 0 -- -- 96
2020-11-08 01:00:00 12.1 0 Calma 4 Oeste 0 -- -- 96
2020-11-08 00:00:00 12.6 0 Calma 4 Nordeste 0 -- -- 95
2020-11-07 23:00:00 13.3 0 Calma 4 Oeste 0 -- -- 93
2020-11-07 22:00:00 14.7 3 Oeste 7 Norte 0 -- -- 91
2020-11-07 21:00:00 15.5 0 Calma 10 Sudeste 0 -- -- 86
2020-11-07 20:00:00 17.1 4 Norte 13 Sur 0 -- -- 78
2020-11-07 19:00:00 17.5 5 Sur 12 Sudoeste 0 -- -- 74
2020-11-07 18:00:00 18.1 4 Sur 11 Sur 0 -- -- 84
2020-11-07 17:00:00 21.1 3 Sur 10 Este 0 -- -- 73
2020-11-07 16:00:00 22.6 4 Sur 21 Oeste 0 -- -- 63
2020-11-07 15:00:00 23.4 8 Oeste 30 Sur 0 -- -- 57
2020-11-07 14:00:00 22.3 11 Sudoeste 39 Sudoeste 0 -- -- 62
2020-11-07 13:00:00 17.9 5 Sudeste 24 Sudoeste 1.8 -- -- 86
2020-11-07 12:00:00 18.5 4 Sudoeste 34 Sudoeste 0.6 -- -- 82
2020-11-07 11:00:00 18.3 16 Sudoeste 46 Sudoeste 0.4 -- -- 82
2020-11-07 10:00:00 21.3 13 Sudoeste 31 Sudoeste 0 -- -- 76
2020-11-07 09:00:00 20.7 5 Oeste 26 Sudeste 0 -- -- 86
2020-11-07 08:00:00 20.6 12 Nordeste 39 Sudeste 0 -- -- 85
2020-11-07 07:00:00 20.5 9 Sudeste 19 Este 0 -- -- 84
2020-11-07 06:00:00 20.3 4 Sudoeste 19 Oeste 0 -- -- 86
2020-11-07 05:00:00 18.4 0 Calma 7 Oeste 0 -- -- 93
2020-11-07 04:00:00 17.6 0 Calma 4 Nordeste 0 -- -- 92
2020-11-07 03:00:00 18.6 0 Calma 13 Nordeste 0 -- -- 89
2020-11-07 02:00:00 19.7 5 Sur 30 Sudeste 0 -- -- 84
2020-11-07 01:00:00 20 9 Sudeste 35 Sudeste 0 -- -- 84
2020-11-07 00:00:00 20 4 Sudoeste 34 Este 0 -- -- 84
2020-11-06 23:00:00 20.2 6 Este 29 Sudeste 0 -- -- 82
2020-11-06 22:00:00 20 10 Sudeste 26 Sur 0 -- -- 83
2020-11-06 21:00:00 20.1 13 Sudeste 26 Sur 0 -- -- 83
2020-11-06 20:00:00 20.2 12 Sur 23 Sudeste 0 -- -- 82
2020-11-06 19:00:00 20.2 9 Sur 20 Sudeste 0 -- -- 82
2020-11-06 18:00:00 20.4 9 Sudeste 25 Sudeste 0 -- -- 82
2020-11-06 17:00:00 20.8 7 Sudeste 23 Sudeste 0 -- -- 80
2020-11-06 16:00:00 21.6 11 Sudeste 26 Sudeste 0 -- -- 77
2020-11-06 15:00:00 22.8 12 Sur 27 Sudeste 0 -- -- 72
2020-11-06 14:00:00 22.9 10 Sur 27 Sudeste 0 -- -- 72
2020-11-06 13:00:00 22.4 9 Sudeste 28 Sudeste 0 -- -- 74
2020-11-06 12:00:00 22 9 Sudeste 28 Sur 0 -- -- 75
2020-11-06 11:00:00 21.6 7 Sur 17 Sur 0 -- -- 77
2020-11-06 10:00:00 20.7 7 Sudeste 21 Sudeste 0 -- -- 83
2020-11-06 09:00:00 19.6 0 Calma 6 Sudeste 0 -- -- 88
2020-11-06 08:00:00 18.8 0 Calma 20 Sudeste 0 -- -- 88
2020-11-06 07:00:00 19.6 6 Sudeste 18 Sudeste 0 -- -- 83
2020-11-06 06:00:00 18.7 6 Sur 14 Sudeste 0 -- -- 88
2020-11-06 05:00:00 17.4 0 Calma 9 Sur 0 -- -- 92
2020-11-06 04:00:00 18.5 3 Sur 10 Sur 0 -- -- 87
2020-11-06 03:00:00 19 3 Sudeste 17 Sur 0 -- -- 84
2020-11-06 02:00:00 19.4 11 Sur 19 Sur 0 -- -- 82
2020-11-06 01:00:00 18.7 5 Sur 12 Sudeste 0 -- -- 87
2020-11-06 00:00:00 18.8 3 Sudeste 9 Sudeste 0 -- -- 87
2020-11-05 23:00:00 18.9 3 Sudeste 10 Este 0 -- -- 87
2020-11-05 22:00:00 19.3 6 Este 19 Sudeste 0 -- -- 86
2020-11-05 21:00:00 19.3 6 Este 20 Sudeste 0 -- -- 84
2020-11-05 20:00:00 19.3 6 Este 19 Sudeste 0 -- -- 83
2020-11-05 19:00:00 19.4 5 Este 24 Sudeste 0 -- -- 82
2020-11-05 18:00:00 19.3 5 Este 19 Sudeste 0 -- -- 80
2020-11-05 17:00:00 19.6 6 Sudeste 23 Este 0 -- -- 78
2020-11-05 16:00:00 19.9 8 Este 30 Sudeste 0 -- -- 75
2020-11-05 15:00:00 20 6 Sudeste 24 Sudeste 0 -- -- 75
2020-11-05 14:00:00 20.2 7 Este 24 Este 0 -- -- 73
2020-11-05 13:00:00 20.6 9 Este 24 Este 0 -- -- 73
2020-11-05 12:00:00 19.8 6 Este 21 Nordeste 0 -- -- 78
2020-11-05 11:00:00 19.9 8 Este 22 Este 0 -- -- 77
2020-11-05 10:00:00 19.2 10 Este 22 Este 0 -- -- 80
2020-11-05 09:00:00 18.7 7 Este 19 Este 0 -- -- 80
2020-11-05 08:00:00 18.3 10 Este 22 Este 0 -- -- 82
2020-11-05 07:00:00 18.1 9 Este 25 Este 0 -- -- 82
2020-11-05 06:00:00 18 7 Este 23 Este 0 -- -- 81
2020-11-05 05:00:00 17.8 8 Este 22 Este 0 -- -- 81
2020-11-05 04:00:00 17.7 6 Nordeste 15 Este 0 -- -- 80
2020-11-05 03:00:00 17.6 7 Nordeste 17 Nordeste 0 -- -- 80
2020-11-05 02:00:00 17.2 5 Este 14 Nordeste 0 -- -- 78
2020-11-05 01:00:00 17 4 Este 13 Este 0 -- -- 76
2020-11-05 00:00:00 16.9 5 Este 16 Este 0 -- -- 75
2020-11-04 23:00:00 16.8 5 Este 17 Nordeste 0 -- -- 75
2020-11-04 22:00:00 16.6 5 Este 14 Este 0 -- -- 75
2020-11-04 21:00:00 16.6 6 Este 19 Nordeste 0 -- -- 74
2020-11-04 20:00:00 16.5 6 Este 26 Este 0 -- -- 75
2020-11-04 19:00:00 16.6 9 Este 29 Este 0 -- -- 74
2020-11-04 18:00:00 16.8 10 Este 30 Este 0 -- -- 75
2020-11-04 17:00:00 16.9 16 Este 36 Este 0 -- -- 77
2020-11-04 16:00:00 16.9 12 Este 36 Este 0 -- -- 79
2020-11-04 15:00:00 16.9 11 Este 35 Este 0 -- -- 78
2020-11-04 14:00:00 16.8 13 Este 39 Este 0 -- -- 78
2020-11-04 13:00:00 16.7 12 Este 30 Este 0 -- -- 79
2020-11-04 12:00:00 16.9 10 Este 25 Este 0 -- -- 79
2020-11-04 11:00:00 17.5 15 Este 32 Este 0 -- -- 76
2020-11-04 10:00:00 17.6 10 Este 28 Este 0 -- -- 73
2020-11-04 09:00:00 17.4 10 Este 24 Nordeste 0 -- -- 76
2020-11-04 08:00:00 16.9 12 Este 25 Este 0 -- -- 79
2020-11-04 07:00:00 16.6 6 Este 16 Este 0 -- -- 80
2020-11-04 06:00:00 16.5 7 Este 18 Este 0 -- -- 80
2020-11-04 05:00:00 16.6 5 Este 11 Este 0 -- -- 80
2020-11-04 04:00:00 16.6 3 Nordeste 12 Norte 0 -- -- 79
2020-11-04 03:00:00 16.7 4 Este 12 Nordeste 0 -- -- 77
2020-11-04 02:00:00 16.7 4 Nordeste 16 Este 0 -- -- 75
2020-11-04 01:00:00 17.1 4 Nordeste 21 Nordeste 0 -- -- 72
2020-11-04 00:00:00 17.4 6 Nordeste 17 Nordeste 0 -- -- 76
2020-11-03 23:00:00 17.6 8 Este 19 Este 0 -- -- 76
2020-11-03 22:00:00 18.1 6 Este 14 Este 0 -- -- 73
2020-11-03 21:00:00 18 5 Este 18 Sudeste 0 -- -- 76
2020-11-03 20:00:00 18 6 Este 19 Nordeste 0 -- -- 80
2020-11-03 19:00:00 17.8 4 Este 8 Este 0 -- -- 78
2020-11-03 18:00:00 17.9 0 Calma 5 Nordeste 0 -- -- 78
2020-11-03 17:00:00 19.3 3 Nordeste 12 Este 0 -- -- 71
2020-11-03 16:00:00 19.7 5 Este 12 Este 0 -- -- 68
2020-11-03 15:00:00 20.4 4 Nordeste 15 Este 0 -- -- 66
2020-11-03 14:00:00 20.8 5 Este 14 Nordeste 0 -- -- 68
2020-11-03 13:00:00 20.9 9 Nordeste 17 Norte 0 -- -- 64
2020-11-03 12:00:00 21.3 4 Nordeste 12 Norte 0 -- -- 64
2020-11-03 11:00:00 20.2 4 Norte 9 Norte 0 -- -- 68
2020-11-03 10:00:00 22.4 2 Oeste 4 Oeste 0 -- -- 70
2020-11-03 09:00:00 17 0 Calma 3 Norte 0 -- -- 98
2020-11-03 08:00:00 13.9 0 Calma 0 Calma 0 -- -- 100
2020-11-03 07:00:00 12.4 0 Calma 3 Sur 0 -- -- 99
2020-11-03 06:00:00 12.6 0 Calma 4 Sudeste 0 -- -- 99
2020-11-03 05:00:00 12.4 0 Calma 4 Noroeste 0 -- -- 99
2020-11-03 04:00:00 11.9 0 Calma 4 Sudeste 0 -- -- 99
2020-11-03 03:00:00 12.5 2 Norte 4 Norte 0 -- -- 99
2020-11-03 02:00:00 12.3 0 Calma 4 Sur 0 -- -- 99
2020-11-03 01:00:00 11.9 0 Calma 3 Norte 0 -- -- 99
2020-11-03 00:00:00 12.1 0 Calma 4 Nordeste 0 -- -- 99
2020-11-02 23:00:00 12.4 2 Norte 4 Oeste 0 -- -- 98
2020-11-02 22:00:00 13 0 Calma 5 Norte 0 -- -- 96
2020-11-02 21:00:00 13.7 0 Calma 3 Norte 0 -- -- 96
2020-11-02 20:00:00 14.7 0 Calma 6 Sur 0 -- -- 94
2020-11-02 19:00:00 16 0 Calma 6 Norte 0 -- -- 92
2020-11-02 18:00:00 18.1 3 Nordeste 10 Nordeste 0 -- -- 87
2020-11-02 17:00:00 20.2 6 Norte 14 Norte 0 -- -- 79
2020-11-02 16:00:00 22.4 8 Noroeste 18 Oeste 0 -- -- 68
2020-11-02 15:00:00 24.5 8 Sudeste 16 Sudeste 0 -- -- 51
2020-11-02 14:00:00 25 5 Sudeste 14 Sudeste 0 -- -- 52
2020-11-02 13:00:00 24 4 Sudoeste 18 Sudeste 0 -- -- 59
2020-11-02 12:00:00 22.8 3 Nordeste 12 Sudeste 0 -- -- 64
2020-11-02 11:00:00 20.7 3 Nordeste 8 Nordeste 0 -- -- 74
2020-11-02 10:00:00 18.5 0 Calma 3 Oeste 0 -- -- 91
2020-11-02 09:00:00 14.2 0 Calma 0 Calma 0 -- -- 100
2020-11-02 08:00:00 9.9 0 Calma 2 Oeste 0 -- -- 100
2020-11-02 07:00:00 9.6 0 Calma -- -- 0 -- -- 99
2020-11-02 06:00:00 9.9 0 Calma -- -- 0 -- -- 99
2020-11-02 05:00:00 10.6 0 Calma -- -- 0 -- -- 99
2020-11-02 04:00:00 10.7 0 Calma -- -- 0 -- -- 99
2020-11-02 03:00:00 10.8 0 Calma -- -- 0 -- -- 99
2020-11-02 02:00:00 11.3 0 Calma -- -- 0 -- -- 99
2020-11-02 01:00:00 11.9 0 Calma -- -- 0 -- -- 99
2020-11-02 00:00:00 12 0 Calma -- -- 0 -- -- 98